Time;durP1;ratioP1;P1;durP2;ratioP2;P2;SDS_P1;SDS_P2;PMS_P1;PMS_P2;Temp;Humidity;BMP_temperature;BMP_pressure;BME280_temperature;BME280_humidity;BME280_pressure;Samples;Min_cycle;Max_cycle;Signal;HPM_P1;HPM_P2
2023/06/03 00:00:18;;;;;;;;;;;;;;;10.91;100.00;102086.66;5013844;28;19925;-72
2023/06/03 00:02:44;;;;;;;;;;;;;;;10.85;100.00;102087.88;5008984;28;19947;-73
2023/06/03 00:05:09;;;;;;;;;;;;;;;10.90;100.00;102088.44;5012242;28;19921;-72
2023/06/03 00:07:34;;;;;;;;;;;;;;;10.89;100.00;102080.50;5006349;28;20286;-73
2023/06/03 00:09:59;;;;;;;;;;;;;;;10.91;100.00;102090.19;5013691;28;20039;-73
2023/06/03 00:12:25;;;;;;;;;;;;;;;10.89;100.00;102089.41;5006703;28;19920;-73
2023/06/03 00:14:50;;;;;;;;;;;;;;;10.85;100.00;102097.75;5009858;28;20197;-72
2023/06/03 00:17:15;;;;;;;;;;;;;;;10.82;100.00;102095.25;5004565;28;20218;-73
2023/06/03 00:19:40;;;;;;;;;;;;;;;10.73;100.00;102088.59;5013315;28;19921;-72
2023/06/03 00:22:06;;;;;;;;;;;;;;;10.71;100.00;102094.06;5007777;28;20011;-72
2023/06/03 00:24:31;;;;;;;;;;;;;;;10.72;100.00;102094.91;5010374;28;19932;-73
2023/06/03 00:26:57;;;;;;;;;;;;;;;10.75;100.00;102092.06;5010122;28;19964;-72
2023/06/03 00:29:22;;;;;;;;;;;;;;;10.75;100.00;102092.06;5005105;28;19924;-73
2023/06/03 00:31:47;;;;;;;;;;;;;;;10.73;100.00;102092.13;5011157;28;19963;-73
2023/06/03 00:34:13;;;;;;;;;;;;;;;10.67;100.00;102089.81;5006321;28;19964;-73
2023/06/03 00:36:39;;;;;;;;;;;;;;;10.58;100.00;102088.53;5009523;28;20020;-73
2023/06/03 00:39:04;;;;;;;;;;;;;;;10.53;100.00;102092.44;5014655;28;19921;-73
2023/06/03 00:41:29;;;;;;;;;;;;;;;10.50;100.00;102088.97;5010898;28;20350;-73
2023/06/03 00:43:55;;;;;;;;;;;;;;;10.34;100.00;102062.09;5003918;28;19921;-73
2023/06/03 00:46:20;;;;;;;;;;;;;;;10.47;100.00;102088.28;5010238;28;19963;-73
2023/06/03 00:48:45;;;;;;;;;;;;;;;10.47;100.00;102089.13;5006700;28;19921;-72
2023/06/03 00:51:11;;;;;;;;;;;;;;;10.47;100.00;102089.13;5008231;28;19920;-73
2023/06/03 00:53:36;;;;;;;;;;;;;;;10.50;100.00;102090.78;5006270;28;19935;-73
2023/06/03 00:56:01;;;;;;;;;;;;;;;10.53;100.00;102087.06;5001053;28;19921;-73
2023/06/03 00:58:26;;;;;;;;;;;;;;;10.52;100.00;102088.88;5003119;28;19956;-72
2023/06/03 01:00:52;;;;;;;;;;;;;;;10.50;100.00;102088.09;5010939;28;19925;-73
2023/06/03 01:03:19;;;;;;;;;;;;;;;10.55;100.00;102087.84;5005666;28;19931;-72
2023/06/03 01:05:45;;;;;;;;;;;;;;;10.58;100.00;102082.28;5007233;28;19920;-73
2023/06/03 01:08:31;;;;;;;;;;;;;;;10.52;100.00;102088.88;5003073;28;20004;-73
2023/06/03 01:11:00;;;;;;;;;;;;;;;10.50;100.00;102088.09;5009516;28;19925;-73
2023/06/03 01:13:28;;;;;;;;;;;;;;;10.44;100.00;102091.13;5002897;28;20450;-72
2023/06/03 01:15:54;;;;;;;;;;;;;;;10.37;100.00;102098.66;5006150;28;20059;-73
2023/06/03 01:18:19;;;;;;;;;;;;;;;10.28;100.00;102099.16;5001111;28;20426;-73
2023/06/03 01:20:45;;;;;;;;;;;;;;;10.30;100.00;102097.25;5011460;28;19964;-73
2023/06/03 01:23:17;;;;;;;;;;;;;;;10.39;100.00;102096.78;5006779;28;20367;-73
2023/06/03 01:25:42;;;;;;;;;;;;;;;10.43;100.00;102090.28;5007994;28;20028;-72
2023/06/03 01:28:08;;;;;;;;;;;;;;;10.49;100.00;102091.75;5013043;28;19925;-73
2023/06/03 01:30:33;;;;;;;;;;;;;;;10.45;100.00;102099.13;5011698;28;19926;-72
2023/06/03 01:32:58;;;;;;;;;;;;;;;10.52;100.00;102096.94;5003343;28;19976;-73
2023/06/03 01:35:23;;;;;;;;;;;;;;;10.61;100.00;102093.72;5011524;28;19956;-73
2023/06/03 01:37:49;;;;;;;;;;;;;;;10.68;100.00;102096.03;5011006;28;20011;-73
2023/06/03 01:40:14;;;;;;;;;;;;;;;10.74;100.00;102098.38;5007270;28;20379;-73
2023/06/03 01:42:39;;;;;;;;;;;;;;;10.77;100.00;102096.38;5007406;28;20556;-73
2023/06/03 01:45:05;;;;;;;;;;;;;;;10.81;100.00;102097.06;5005528;28;19917;-73
2023/06/03 01:47:30;;;;;;;;;;;;;;;10.85;100.00;102095.94;5001641;28;20403;-73
2023/06/03 01:49:55;;;;;;;;;;;;;;;10.86;100.00;102091.41;5014979;28;19926;-73
2023/06/03 01:52:21;;;;;;;;;;;;;;;10.84;100.00;102098.69;5014575;28;19999;-73
2023/06/03 01:54:46;;;;;;;;;;;;;;;10.84;100.00;102099.59;5011862;28;19921;-73
2023/06/03 01:57:11;;;;;;;;;;;;;;;10.82;100.00;102103.28;5005310;28;19921;-73
2023/06/03 01:59:36;;;;;;;;;;;;;;;10.84;100.00;102096.91;5010696;28;19925;-72
2023/06/03 02:02:02;;;;;;;;;;;;;;;10.90;100.00;102098.34;5008401;28;19959;-72
2023/06/03 02:04:27;;;;;;;;;;;;;;;10.88;100.00;102097.56;5006554;28;19922;-72
2023/06/03 02:06:53;;;;;;;;;;;;;;;10.85;100.00;102095.94;5013839;28;19917;-72
2023/06/03 02:09:21;;;;;;;;;;;;;;;10.83;100.00;102092.47;5008613;28;20340;-73
2023/06/03 02:11:46;;;;;;;;;;;;;;;10.87;100.00;102096.69;5016600;28;19948;-72
2023/06/03 02:14:11;;;;;;;;;;;;;;;10.88;100.00;102087.66;5011212;28;20375;-72
2023/06/03 02:16:37;;;;;;;;;;;;;;;10.90;100.00;102091.13;5010962;28;19967;-72
2023/06/03 02:19:03;;;;;;;;;;;;;;;10.86;100.00;102094.94;5015814;28;19971;-73
2023/06/03 02:21:28;;;;;;;;;;;;;;;10.84;100.00;102094.22;5004681;28;19925;-72
2023/06/03 02:23:54;;;;;;;;;;;;;;;10.78;100.00;102092.72;5007709;28;19973;-72
2023/06/03 02:26:19;;;;;;;;;;;;;;;10.75;100.00;102092.06;5010225;28;19921;-72
2023/06/03 02:28:45;;;;;;;;;;;;;;;10.69;100.00;102090.59;5005988;28;19924;-72
2023/06/03 02:31:10;;;;;;;;;;;;;;;10.74;100.00;102090.31;5008823;28;19925;-73
2023/06/03 02:33:35;;;;;;;;;;;;;;;10.77;100.00;102085.63;5002064;28;20304;-72
2023/06/03 02:36:00;;;;;;;;;;;;;;;10.83;100.00;102084.41;5003868;28;20371;-73
2023/06/03 02:38:26;;;;;;;;;;;;;;;10.83;100.00;102083.53;5008315;28;20316;-72
2023/06/03 02:40:51;;;;;;;;;;;;;;;10.82;100.00;102084.50;5006688;28;20326;-72
2023/06/03 02:43:16;;;;;;;;;;;;;;;10.80;100.00;102085.44;5006985;28;20521;-72
2023/06/03 02:45:41;;;;;;;;;;;;;;;10.83;100.00;102087.09;5008062;28;20371;-72
2023/06/03 02:48:06;;;;;;;;;;;;;;;10.87;100.00;102083.25;5010356;28;20007;-72
2023/06/03 02:50:32;;;;;;;;;;;;;;;10.90;100.00;102083.06;5009400;28;20163;-73
2023/06/03 02:52:58;;;;;;;;;;;;;;;10.94;100.00;102083.78;5008091;28;19936;-73
2023/06/03 02:55:23;;;;;;;;;;;;;;;10.94;100.00;102079.25;5010206;28;20019;-73
2023/06/03 02:57:48;;;;;;;;;;;;;;;10.93;100.00;102090.97;5003091;28;19921;-73
2023/06/03 03:00:15;;;;;;;;;;;;;;;10.93;100.00;102090.09;5006997;28;19947;-72
2023/06/03 03:02:40;;;;;;;;;;;;;;;10.92;100.00;102096.44;5000631;28;20387;-72
2023/06/03 03:05:05;;;;;;;;;;;;;;;10.85;100.00;102092.38;5007945;28;19921;-73
2023/06/03 03:07:32;;;;;;;;;;;;;;;10.78;100.00;102092.72;5006881;28;20012;-72
2023/06/03 03:09:57;;;;;;;;;;;;;;;10.77;100.00;102088.31;5008391;28;19921;-72
2023/06/03 03:12:23;;;;;;;;;;;;;;;10.74;100.00;102093.84;5005235;28;19979;-72
2023/06/03 03:14:48;;;;;;;;;;;;;;;10.78;100.00;102095.41;5006247;28;19964;-73
2023/06/03 03:17:13;;;;;;;;;;;;;;;10.73;100.00;102102.03;5007699;28;20332;-72
2023/06/03 03:19:38;;;;;;;;;;;;;;;10.74;100.00;102096.53;5009091;28;19929;-72
2023/06/03 03:22:04;;;;;;;;;;;;;;;10.60;100.00;102069.63;5008809;28;19971;-72
2023/06/03 03:24:30;;;;;;;;;;;;;;;10.72;100.00;102090.44;5006974;28;20023;-72
2023/06/03 03:26:55;;;;;;;;;;;;;;;10.70;100.00;102105.75;5002092;28;19922;-72
2023/06/03 03:29:24;;;;;;;;;;;;;;;10.66;100.00;102088.09;5000813;28;19925;-72
2023/06/03 03:31:49;;;;;;;;;;;;;;;10.63;100.00;102094.50;5008234;28;20136;-72
2023/06/03 03:34:17;;;;;;;;;;;;;;;10.67;100.00;102094.31;5008165;28;19921;-72
2023/06/03 03:36:46;;;;;;;;;;;;;;;10.64;100.00;102098.06;5003254;28;20040;-71
2023/06/03 03:39:11;;;;;;;;;;;;;;;10.64;100.00;102100.75;5008989;28;19925;-72
2023/06/03 03:41:36;;;;;;;;;;;;;;;10.48;100.00;102077.44;5007590;28;20468;-73
2023/06/03 03:44:01;;;;;;;;;;;;;;;10.63;100.00;102109.75;5003983;28;19929;-73
2023/06/03 03:46:27;;;;;;;;;;;;;;;10.59;100.00;102103.69;5009348;28;19921;-73
2023/06/03 03:48:52;;;;;;;;;;;;;;;10.55;100.00;102104.84;5006164;28;20405;-73
2023/06/03 03:51:17;;;;;;;;;;;;;;;10.49;100.00;102105.19;5011676;28;19956;-73
2023/06/03 03:53:44;;;;;;;;;;;;;;;10.43;100.00;102108.19;5003206;28;20044;-72
2023/06/03 03:56:09;;;;;;;;;;;;;;;10.44;100.00;102113.50;5011853;28;20301;-73
2023/06/03 03:58:41;;;;;;;;;;;;;;;10.41;100.00;102108.31;5015215;28;19943;-73
2023/06/03 04:01:12;;;;;;;;;;;;;;;10.37;100.00;102109.41;5019627;28;19932;-72
2023/06/03 04:03:40;;;;;;;;;;;;;;;10.38;100.00;102108.44;5015361;28;19921;-73
2023/06/03 04:06:09;;;;;;;;;;;;;;;10.42;100.00;102114.53;5018119;28;20343;-72
2023/06/03 04:08:43;;;;;;;;;;;;;;;10.46;100.00;102118.78;5001779;28;20517;-72
2023/06/03 04:11:09;;;;;;;;;;;;;;;10.49;100.00;102122.13;5007871;28;19968;-72
2023/06/03 04:13:38;;;;;;;;;;;;;;;10.53;100.00;102120.16;5008788;28;20013;-73
2023/06/03 04:16:13;;;;;;;;;;;;;;;10.53;100.00;102125.53;5015090;28;19921;-72
2023/06/03 04:18:40;;;;;;;;;;;;;;;10.59;100.00;102119.81;5008361;28;20012;-73
2023/06/03 04:21:05;;;;;;;;;;;;;;;10.60;100.00;102116.16;5005352;28;19924;-73
2023/06/03 04:23:30;;;;;;;;;;;;;;;10.66;100.00;102125.69;5013679;28;19917;-73
2023/06/03 04:25:56;;;;;;;;;;;;;;;10.43;100.00;102086.72;5013619;28;20264;-72
2023/06/03 04:28:21;;;;;;;;;;;;;;;10.73;100.00;102118.13;5010474;28;20003;-72
2023/06/03 04:30:46;;;;;;;;;;;;;;;10.76;100.00;102118.81;5017317;28;19940;-72
2023/06/03 04:33:11;;;;;;;;;;;;;;;10.78;100.00;102121.44;5004599;28;20291;-72
2023/06/03 04:35:37;;;;;;;;;;;;;;;10.89;100.00;102120.78;5012063;28;20259;-72
2023/06/03 04:38:02;;;;;;;;;;;;;;;10.90;100.00;102117.16;5010388;28;20320;-73
2023/06/03 04:40:27;;;;;;;;;;;;;;;10.96;100.00;102116.81;5017827;28;20362;-72
2023/06/03 04:42:52;;;;;;;;;;;;;;;11.07;100.00;102118.84;5003116;28;19917;-72
2023/06/03 04:45:21;;;;;;;;;;;;;;;11.12;100.00;102116.75;5013388;28;20022;-73
2023/06/03 04:47:47;;;;;;;;;;;;;;;11.20;100.00;102117.13;5010327;28;19924;-72
2023/06/03 04:50:19;;;;;;;;;;;;;;;11.31;100.00;102121.88;5017861;28;19917;-72
2023/06/03 04:52:45;;;;;;;;;;;;;;;11.37;100.00;102120.66;5010215;28;19924;-73
2023/06/03 04:55:12;;;;;;;;;;;;;;;11.41;100.00;102122.16;5009539;28;20279;-73
2023/06/03 04:57:37;;;;;;;;;;;;;;;11.54;100.00;102119.59;5005047;28;20007;-72
2023/06/03 05:00:07;;;;;;;;;;;;;;;11.61;100.00;102120.09;5015718;28;19970;-74
2023/06/03 05:02:32;;;;;;;;;;;;;;;11.69;100.00;102142.88;5009715;28;19963;-73
2023/06/03 05:04:57;;;;;;;;;;;;;;;11.82;100.00;102123.25;5016789;28;19927;-73
2023/06/03 05:07:24;;;;;;;;;;;;;;;11.84;100.00;102127.59;5011619;28;20279;-70
2023/06/03 05:09:50;;;;;;;;;;;;;;;11.94;100.00;102122.50;5009152;28;19922;-72
2023/06/03 05:12:15;;;;;;;;;;;;;;;12.03;100.00;102129.16;5009501;28;20188;-73
2023/06/03 05:14:41;;;;;;;;;;;;;;;12.10;100.00;102124.22;5010807;28;20382;-72
2023/06/03 05:17:06;;;;;;;;;;;;;;;12.20;100.00;102124.50;5016950;28;20261;-73
2023/06/03 05:19:31;;;;;;;;;;;;;;;12.23;100.00;102118.94;5011821;28;19964;-73
2023/06/03 05:21:58;;;;;;;;;;;;;;;12.33;100.00;102124.56;5011434;28;20297;-72
2023/06/03 05:24:23;;;;;;;;;;;;;;;12.41;100.00;102119.56;5016930;28;19921;-72
2023/06/03 05:26:48;;;;;;;;;;;;;;;12.42;100.00;102121.28;5007919;28;19921;-75
2023/06/03 05:29:14;;;;;;;;;;;;;;;12.53;100.00;102124.16;4989791;28;19928;-73
2023/06/03 05:31:39;;;;;;;;;;;;;;;12.63;100.00;102123.53;5006724;28;19925;-74
2023/06/03 05:34:05;;;;;;;;;;;;;;;12.66;100.00;102126.03;5007136;28;20287;-71
2023/06/03 05:36:30;;;;;;;;;;;;;;;12.68;100.00;102119.59;5009856;28;20321;-71
2023/06/03 05:38:55;;;;;;;;;;;;;;;12.63;100.00;102094.78;5009080;28;19956;-73
2023/06/03 05:41:20;;;;;;;;;;;;;;;12.84;100.00;102118.56;5014546;28;20355;-73
2023/06/03 05:43:46;;;;;;;;;;;;;;;12.96;100.00;102130.34;5001568;28;20195;-73
2023/06/03 05:46:11;;;;;;;;;;;;;;;12.98;100.00;102131.09;5003120;28;20474;-72
2023/06/03 05:48:36;;;;;;;;;;;;;;;13.12;100.00;102124.78;5004937;28;20438;-73
2023/06/03 05:51:01;;;;;;;;;;;;;;;13.12;97.60;102124.78;5002071;28;19944;-71
2023/06/03 05:53:27;;;;;;;;;;;;;;;13.20;100.00;102128.66;5011633;28;19921;-72
2023/06/03 05:55:52;;;;;;;;;;;;;;;13.22;96.33;102125.88;5009159;28;19968;-73
2023/06/03 05:58:17;;;;;;;;;;;;;;;13.35;94.85;102128.59;5009797;28;20007;-71
2023/06/03 06:00:43;;;;;;;;;;;;;;;13.35;94.55;102131.28;5001794;28;19932;-72
2023/06/03 06:03:08;;;;;;;;;;;;;;;13.44;93.97;102130.66;5008020;28;19941;-71
2023/06/03 06:05:33;;;;;;;;;;;;;;;13.62;87.63;102131.22;5007480;28;19928;-70
2023/06/03 06:07:58;;;;;;;;;;;;;;;13.71;86.69;102128.84;5011019;28;19953;-70
2023/06/03 06:10:24;;;;;;;;;;;;;;;13.63;83.09;102110.50;5005805;28;19925;-72
2023/06/03 06:12:49;;;;;;;;;;;;;;;13.83;82.43;102130.66;5002943;28;19953;-70
2023/06/03 06:15:14;;;;;;;;;;;;;;;14.01;82.41;102127.63;5008377;28;19952;-71
2023/06/03 06:17:39;;;;;;;;;;;;;;;14.17;86.58;102127.41;5006966;28;19921;-72
2023/06/03 06:20:05;;;;;;;;;;;;;;;14.28;78.62;102127.47;5005079;28;19925;-72
2023/06/03 06:22:31;;;;;;;;;;;;;;;14.34;79.65;102132.41;5003012;28;19940;-70
2023/06/03 06:24:56;;;;;;;;;;;;;;;14.47;83.62;102124.28;5003752;28;19921;-71
2023/06/03 06:27:21;;;;;;;;;;;;;;;14.60;79.63;102132.31;5004192;28;20281;-72
2023/06/03 06:29:46;;;;;;;;;;;;;;;14.70;80.59;102136.06;5007226;28;20024;-71
2023/06/03 06:32:11;;;;;;;;;;;;;;;14.83;80.61;102129.75;5005040;28;20361;-70
2023/06/03 06:34:37;;;;;;;;;;;;;;;14.89;75.94;102136.53;5001674;28;20342;-72
2023/06/03 06:37:03;;;;;;;;;;;;;;;15.02;77.27;102139.19;5003032;28;19967;-72
2023/06/03 06:39:34;;;;;;;;;;;;;;;15.05;73.89;102139.81;5001618;28;19938;-73
2023/06/03 06:42:11;;;;;;;;;;;;;;;15.05;70.85;102131.72;5003035;28;20305;-73
2023/06/03 06:44:48;;;;;;;;;;;;;;;14.97;72.66;102123.31;5004561;28;20023;-71
2023/06/03 06:47:20;;;;;;;;;;;;;;;15.18;70.62;102144.28;5011503;28;19971;-71
2023/06/03 06:49:45;;;;;;;;;;;;;;;15.17;71.36;102142.56;5006266;28;19929;-70
2023/06/03 06:52:11;;;;;;;;;;;;;;;15.27;70.93;102143.56;5007617;28;19964;-74
2023/06/03 06:54:36;;;;;;;;;;;;;;;15.33;70.50;102143.09;5003092;28;20372;-72
2023/06/03 06:57:01;;;;;;;;;;;;;;;15.46;70.37;102140.31;5009265;28;19925;-71
2023/06/03 06:59:26;;;;;;;;;;;;;;;15.62;69.63;102141.81;5009120;28;19934;-71
2023/06/03 07:01:52;;;;;;;;;;;;;;;15.73;66.46;102136.41;5014646;28;20279;-72
2023/06/03 07:04:17;;;;;;;;;;;;;;;15.71;64.89;102132.97;5012944;28;20019;-70
2023/06/03 07:06:42;;;;;;;;;;;;;;;15.91;66.13;102141.38;5011724;28;20268;-75
2023/06/03 07:09:07;;;;;;;;;;;;;;;15.96;63.94;102147.28;5011123;28;20291;-70
2023/06/03 07:11:35;;;;;;;;;;;;;;;15.96;64.02;102147.28;5014626;28;20406;-72
2023/06/03 07:14:00;;;;;;;;;;;;;;;15.88;65.74;102142.47;5011103;28;19922;-69
2023/06/03 07:16:25;;;;;;;;;;;;;;;16.19;64.03;102145.41;5014568;28;19924;-73
2023/06/03 07:18:53;;;;;;;;;;;;;;;16.12;64.09;102141.50;5010319;28;20568;-73
2023/06/03 07:21:18;;;;;;;;;;;;;;;16.28;59.99;102143.81;5014506;28;19926;-72
2023/06/03 07:23:43;;;;;;;;;;;;;;;16.32;60.11;102139.84;5011943;28;19996;-71
2023/06/03 07:26:09;;;;;;;;;;;;;;;16.49;61.92;102135.75;5014161;28;19968;-73
2023/06/03 07:28:34;;;;;;;;;;;;;;;16.61;64.62;102129.31;5001387;28;19925;-72
2023/06/03 07:31:00;;;;;;;;;;;;;;;16.74;64.00;102137.28;5013783;28;19925;-69
2023/06/03 07:33:29;;;;;;;;;;;;;;;16.79;60.83;102136.91;5007732;28;20020;-72
2023/06/03 07:35:55;;;;;;;;;;;;;;;16.83;57.33;102135.66;5009980;28;19920;-71
2023/06/03 07:38:29;;;;;;;;;;;;;;;17.00;65.97;102139.69;5007238;28;20401;-71
2023/06/03 07:40:54;;;;;;;;;;;;;;;17.06;60.68;102131.03;5014001;28;19924;-69
2023/06/03 07:43:19;;;;;;;;;;;;;;;17.28;59.69;102141.88;5014344;28;19924;-73
2023/06/03 07:45:45;;;;;;;;;;;;;;;17.34;59.36;102139.53;4996528;28;19921;-71
2023/06/03 07:48:10;;;;;;;;;;;;;;;17.49;57.83;102140.03;5009304;28;19928;-71
2023/06/03 07:50:35;;;;;;;;;;;;;;;17.66;58.94;102140.41;5013026;28;19971;-73
2023/06/03 07:53:01;;;;;;;;;;;;;;;17.60;57.32;102139.13;5017236;28;20215;-68
2023/06/03 07:55:33;;;;;;;;;;;;;;;17.69;55.82;102141.00;5007886;28;19922;-71
2023/06/03 07:57:58;;;;;;;;;;;;;;;17.69;57.05;102142.88;5000469;28;19932;-72
2023/06/03 08:00:24;;;;;;;;;;;;;;;17.74;55.12;102146.06;5010196;28;19965;-70
2023/06/03 08:02:49;;;;;;;;;;;;;;;17.83;53.26;102150.66;5011238;28;20020;-71
2023/06/03 08:05:15;;;;;;;;;;;;;;;17.72;50.47;102150.75;5009697;28;19921;-68
2023/06/03 08:07:42;;;;;;;;;;;;;;;17.94;54.07;102146.97;5010199;28;19925;-73
2023/06/03 08:10:11;;;;;;;;;;;;;;;18.07;52.50;102152.22;5007052;28;20299;-69
2023/06/03 08:12:36;;;;;;;;;;;;;;;17.97;50.28;102154.84;5003140;28;20376;-69
2023/06/03 08:15:01;;;;;;;;;;;;;;;18.14;52.90;102149.81;5005573;28;19949;-68
2023/06/03 08:17:37;;;;;;;;;;;;;;;18.12;49.13;102147.22;5008313;28;20638;-71
2023/06/03 08:20:08;;;;;;;;;;;;;;;18.06;45.82;102145.06;5006629;28;19932;-69
2023/06/03 08:22:40;;;;;;;;;;;;;;;18.09;48.03;102152.94;5005416;28;20202;-70
2023/06/03 08:25:06;;;;;;;;;;;;;;;18.12;49.49;102149.94;5005984;28;19921;-73
2023/06/03 08:27:32;;;;;;;;;;;;;;;18.14;47.48;102125.38;5014107;28;20346;-69
2023/06/03 08:29:57;;;;;;;;;;;;;;;18.36;46.42;102145.16;5007887;28;20371;-73
2023/06/03 08:32:22;;;;;;;;;;;;;;;18.31;43.13;102142.00;5008483;28;19979;-68
2023/06/03 08:34:48;;;;;;;;;;;;;;;18.53;44.42;102140.91;5009891;28;20028;-71
2023/06/03 08:37:13;;;;;;;;;;;;;;;18.62;44.94;102142.78;5010445;28;19925;-71
2023/06/03 08:39:38;;;;;;;;;;;;;;;18.64;46.35;102140.78;5009640;28;19932;-71
2023/06/03 08:42:05;;;;;;;;;;;;;;;18.79;45.18;102140.38;5010286;28;19928;-70
2023/06/03 08:44:49;;;;;;;;;;;;;;;18.94;45.82;102135.34;5012811;28;20006;-72
2023/06/03 08:47:23;;;;;;;;;;;;;;;19.06;42.77;102136.94;5008955;28;20367;-72
2023/06/03 08:50:04;;;;;;;;;;;;;;;18.82;43.39;102132.78;5010570;28;20363;-68
2023/06/03 08:52:30;;;;;;;;;;;;;;;18.87;43.22;102130.50;5004961;28;19921;-68
2023/06/03 08:54:56;;;;;;;;;;;;;;;18.99;42.06;102130.38;5000939;28;19928;-67
2023/06/03 08:57:21;;;;;;;;;;;;;;;19.22;42.47;102136.38;5005170;28;19964;-67
2023/06/03 08:59:47;;;;;;;;;;;;;;;19.34;41.38;102128.91;4995111;28;19926;-71
2023/06/03 09:02:12;;;;;;;;;;;;;;;19.31;42.87;102137.34;5012417;28;19922;-67
2023/06/03 09:04:38;;;;;;;;;;;;;;;19.28;40.44;102132.19;5007504;28;19932;-68
2023/06/03 09:07:04;;;;;;;;;;;;;;;19.35;43.04;102133.34;5011996;28;19973;-70
2023/06/03 09:09:29;;;;;;;;;;;;;;;19.11;40.93;102125.63;5018542;28;20361;-67
2023/06/03 09:11:54;;;;;;;;;;;;;;;19.12;38.35;102119.19;5012409;28;20280;-70
2023/06/03 09:14:20;;;;;;;;;;;;;;;19.37;39.40;102135.91;5006300;28;20455;-70
2023/06/03 09:16:45;;;;;;;;;;;;;;;19.37;40.65;102127.75;5005638;28;20342;-70
2023/06/03 09:19:10;;;;;;;;;;;;;;;19.68;41.05;102122.06;5009170;28;19999;-73
2023/06/03 09:21:37;;;;;;;;;;;;;;;19.86;38.48;102119.44;5001155;28;20268;-69
2023/06/03 09:24:02;;;;;;;;;;;;;;;19.67;36.96;102142.16;5004574;28;20046;-71
2023/06/03 09:26:27;;;;;;;;;;;;;;;20.01;39.40;102126.13;5010014;28;19921;-70
2023/06/03 09:28:53;;;;;;;;;;;;;;;20.21;38.63;102121.44;5012790;28;20014;-70
2023/06/03 09:31:18;;;;;;;;;;;;;;;20.08;39.32;102131.84;5007750;28;19929;-71
2023/06/03 09:33:43;;;;;;;;;;;;;;;20.15;36.86;102134.81;5002194;28;19925;-69
2023/06/03 09:36:10;;;;;;;;;;;;;;;20.23;40.09;102126.75;5003570;28;20408;-70
2023/06/03 09:38:45;;;;;;;;;;;;;;;20.29;35.97;102131.56;5013827;28;20015;-71
2023/06/03 09:41:14;;;;;;;;;;;;;;;20.18;34.54;102134.53;5009605;28;19936;-70
2023/06/03 09:43:39;;;;;;;;;;;;;;;20.10;36.93;102116.19;4997752;28;19936;-71
2023/06/03 09:46:10;;;;;;;;;;;;;;;20.52;38.81;102131.16;5000517;28;19952;-73
2023/06/03 09:48:35;;;;;;;;;;;;;;;20.65;35.40;102119.88;5006327;28;19928;-71
2023/06/03 09:51:00;;;;;;;;;;;;;;;20.61;35.99;102126.66;5000904;28;19968;-73
2023/06/03 09:53:26;;;;;;;;;;;;;;;20.59;35.68;102112.31;5007375;28;20268;-69
2023/06/03 09:55:51;;;;;;;;;;;;;;;20.50;31.55;102138.66;5004999;28;19921;-70
2023/06/03 09:58:16;;;;;;;;;;;;;;;20.97;33.32;102122.06;5005562;28;20291;-71
2023/06/03 10:00:48;;;;;;;;;;;;;;;20.95;35.43;102121.38;5013510;28;20283;-70
2023/06/03 10:03:13;;;;;;;;;;;;;;;20.93;33.68;102120.66;4984910;28;20591;-70
2023/06/03 10:05:41;;;;;;;;;;;;;;;21.19;34.64;102127.22;5003551;28;20524;-70
2023/06/03 10:08:06;;;;;;;;;;;;;;;21.44;34.20;102133.69;5005322;28;19925;-72
2023/06/03 10:10:33;;;;;;;;;;;;;;;21.42;37.01;102124.78;5003386;28;20256;-69
2023/06/03 10:12:58;;;;;;;;;;;;;;;21.85;35.96;102112.09;4997745;28;19927;-68
2023/06/03 10:15:33;;;;;;;;;;;;;;;21.87;36.89;102123.72;5001107;28;19921;-70
2023/06/03 10:17:58;;;;;;;;;;;;;;;21.94;39.56;102114.88;5007583;28;19951;-71
2023/06/03 10:20:33;;;;;;;;;;;;;;;22.18;34.89;102117.69;5012217;28;19929;-72
2023/06/03 10:22:59;;;;;;;;;;;;;;;22.24;32.72;102116.19;5006164;28;19921;-72
2023/06/03 10:25:24;;;;;;;;;;;;;;;22.33;35.28;102115.19;5004880;28;20267;-71
2023/06/03 10:27:50;;;;;;;;;;;;;;;22.49;32.47;102123.63;5005139;28;19925;-69
2023/06/03 10:30:15;;;;;;;;;;;;;;;22.47;32.26;102110.13;5006962;28;19925;-70
2023/06/03 10:32:42;;;;;;;;;;;;;;;22.69;32.17;102116.81;4998264;28;19921;-71
2023/06/03 10:35:08;;;;;;;;;;;;;;;22.97;34.07;102102.81;4992501;28;20347;-70
2023/06/03 10:37:34;;;;;;;;;;;;;;;23.15;30.63;102120.97;5030183;28;20417;-73
2023/06/03 10:39:59;;;;;;;;;;;;;;;23.35;33.51;102100.41;5011640;28;19929;-69
2023/06/03 10:42:24;;;;;;;;;;;;;;;23.94;29.88;102117.53;5003149;28;19956;-72
2023/06/03 10:44:49;;;;;;;;;;;;;;;24.25;31.23;102095.63;5005686;28;19957;-71
2023/06/03 10:47:15;;;;;;;;;;;;;;;23.80;29.22;102127.34;4993975;28;19927;-71
2023/06/03 10:49:45;;;;;;;;;;;;;;;24.20;29.17;102109.06;5003905;28;19927;-70
2023/06/03 10:52:29;;;;;;;;;;;;;;;24.37;27.71;102117.19;5006220;28;19968;-69
2023/06/03 10:54:54;;;;;;;;;;;;;;;24.47;28.85;102106.84;5004200;28;19926;-69
2023/06/03 10:57:20;;;;;;;;;;;;;;;24.93;30.13;102088.69;5007242;28;20221;-70
2023/06/03 10:59:46;;;;;;;;;;;;;;;25.07;28.32;102107.09;5008509;28;19932;-70
2023/06/03 11:02:12;;;;;;;;;;;;;;;25.27;32.08;102090.09;4996044;28;19921;-69
2023/06/03 11:04:37;;;;;;;;;;;;;;;25.57;30.63;102099.22;5007130;28;20651;-71
2023/06/03 11:07:04;;;;;;;;;;;;;;;25.58;29.71;102098.19;5008882;28;19921;-70
2023/06/03 11:09:30;;;;;;;;;;;;;;;26.01;28.50;102111.25;5008967;28;19991;-69
2023/06/03 11:12:03;;;;;;;;;;;;;;;25.44;26.08;102124.63;5012573;28;19932;-71
2023/06/03 11:14:32;;;;;;;;;;;;;;;25.09;27.17;102115.16;5013623;28;20367;-70
2023/06/03 11:16:57;;;;;;;;;;;;;;;25.74;27.51;102124.66;5008925;28;19921;-70
2023/06/03 11:19:26;;;;;;;;;;;;;;;25.53;25.15;102135.56;5010382;28;20853;-70
2023/06/03 11:21:51;;;;;;;;;;;;;;;25.24;25.47;102110.53;5010620;28;19975;-71
2023/06/03 11:24:36;;;;;;;;;;;;;;;25.21;28.12;102099.91;5008732;28;20427;-70
2023/06/03 11:27:07;;;;;;;;;;;;;;;25.67;25.90;102120.94;5011195;28;20035;-71
2023/06/03 11:29:48;;;;;;;;;;;;;;;26.23;30.46;102088.44;5005511;28;20113;-71
2023/06/03 11:32:14;;;;;;;;;;;;;;;26.84;27.60;102106.50;5008783;28;19991;-72
2023/06/03 11:34:40;;;;;;;;;;;;;;;26.89;25.82;102113.09;5009985;28;20243;-73
2023/06/03 11:37:05;;;;;;;;;;;;;;;26.96;24.55;102121.44;5002921;28;19921;-71
2023/06/03 11:39:49;;;;;;;;;;;;;;;27.27;25.29;102111.97;5007001;28;20015;-74
2023/06/03 11:42:14;;;;;;;;;;;;;;;27.17;26.85;102109.53;5001580;28;19925;-71
2023/06/03 11:44:41;;;;;;;;;;;;;;;27.02;26.11;102119.78;5004633;28;20503;-72
2023/06/03 11:47:06;;;;;;;;;;;;;;;27.20;25.35;102113.81;5008095;28;20644;-72
2023/06/03 11:49:36;;;;;;;;;;;;;;;27.33;24.60;102124.06;5005847;28;19963;-70
2023/06/03 11:52:01;;;;;;;;;;;;;;;27.33;27.49;102093.75;5003357;28;19932;-70
2023/06/03 11:54:26;;;;;;;;;;;;;;;27.97;24.52;102113.84;5006754;28;19921;-70
2023/06/03 11:56:54;;;;;;;;;;;;;;;28.62;23.55;102118.13;5006143;28;20222;-70
2023/06/03 11:59:20;;;;;;;;;;;;;;;29.05;25.37;102092.91;5002143;28;19922;-73
2023/06/03 12:02:14;;;;;;;;;;;;;;;28.87;24.81;102096.31;5007269;28;19932;-70
2023/06/03 12:04:39;;;;;;;;;;;;;;;28.76;25.12;102094.16;5001191;28;19925;-73
2023/06/03 12:07:08;;;;;;;;;;;;;;;28.70;25.09;102091.19;5003813;28;21596;-73
2023/06/03 12:09:34;;;;;;;;;;;;;;;29.70;24.46;102096.88;5001751;28;19921;-70
2023/06/03 12:12:03;;;;;;;;;;;;;;;29.26;24.17;102090.97;5005963;28;20329;-69
2023/06/03 12:14:29;;;;;;;;;;;;;;;28.79;25.10;102078.03;5001091;28;19967;-70
2023/06/03 12:16:55;;;;;;;;;;;;;;;29.27;24.72;102087.97;5010100;28;19928;-72
2023/06/03 12:19:20;;;;;;;;;;;;;;;28.19;25.94;102084.25;5007994;28;19961;-70
2023/06/03 12:21:53;;;;;;;;;;;;;;;28.30;26.61;102085.56;5013092;28;19925;-72
2023/06/03 12:24:18;;;;;;;;;;;;;;;28.06;25.96;102101.59;5011172;28;20384;-72
2023/06/03 12:26:44;;;;;;;;;;;;;;;28.24;22.06;102111.22;5017641;28;20012;-70
2023/06/03 12:29:10;;;;;;;;;;;;;;;29.17;24.83;102084.81;5015964;28;19921;-71